Time;durP1;ratioP1;P1;durP2;ratioP2;P2;SDS_P1;SDS_P2;PMS_P1;PMS_P2;Temp;Humidity;BMP_temperature;BMP_pressure;BME280_temperature;BME280_humidity;BME280_pressure;Samples;Min_cycle;Max_cycle;Signal;HPM_P1;HPM_P2
2024/01/17 00:00:08;;;;;;;55.67;32.53;;;1.50;47.80;;;;;;5008266;28;20696;-82
2024/01/17 00:02:34;;;;;;;58.43;32.53;;;1.50;47.80;;;;;;5006667;28;20188;-82
2024/01/17 00:04:59;;;;;;;53.30;30.97;;;1.50;47.80;;;;;;5011689;28;20291;-83
2024/01/17 00:07:25;;;;;;;57.57;32.57;;;1.60;48.00;;;;;;5016117;28;20609;-82
2024/01/17 00:09:51;;;;;;;59.30;32.73;;;1.60;48.10;;;;;;5024608;28;20276;-83
2024/01/17 00:12:16;;;;;;;52.90;31.57;;;1.60;48.10;;;;;;5007802;28;20206;-82
2024/01/17 00:14:42;;;;;;;51.97;31.13;;;1.70;48.10;;;;;;5007519;28;20201;-82
2024/01/17 00:17:08;;;;;;;57.80;32.27;;;1.70;48.20;;;;;;5012518;28;20188;-82
2024/01/17 00:19:35;;;;;;;54.10;32.80;;;1.70;48.20;;;;;;5006415;28;20651;-83
2024/01/17 00:22:01;;;;;;;51.63;30.20;;;1.70;48.20;;;;;;5036045;28;20197;-82
2024/01/17 00:24:27;;;;;;;57.03;31.83;;;1.90;48.40;;;;;;5008599;28;20190;-83
2024/01/17 00:26:52;;;;;;;57.60;31.10;;;1.80;48.40;;;;;;5007111;28;20885;-82
2024/01/17 00:29:18;;;;;;;52.70;32.00;;;1.90;48.40;;;;;;5025007;28;20711;-82
2024/01/17 00:31:44;;;;;;;53.67;30.93;;;1.90;48.30;;;;;;5012090;28;20221;-82
2024/01/17 00:34:09;;;;;;;56.47;32.93;;;1.90;48.30;;;;;;5002839;28;20680;-82
2024/01/17 00:36:35;;;;;;;51.00;30.63;;;1.90;48.40;;;;;;5008347;28;20182;-83
2024/01/17 00:39:01;;;;;;;50.87;30.87;;;1.90;48.90;;;;;;5007067;28;20291;-82
2024/01/17 00:41:26;;;;;;;49.50;30.80;;;1.90;48.40;;;;;;5022813;28;20186;-83
2024/01/17 00:43:52;;;;;;;53.17;32.07;;;1.90;48.40;;;;;;5011060;28;20197;-82
2024/01/17 00:46:18;;;;;;;53.23;32.40;;;2.00;48.50;;;;;;5014375;28;20263;-82
2024/01/17 00:48:44;;;;;;;51.17;31.37;;;2.00;48.50;;;;;;5015504;28;20673;-82
2024/01/17 00:51:09;;;;;;;53.90;31.13;;;2.00;48.60;;;;;;5023759;28;20222;-82
2024/01/17 00:53:35;;;;;;;53.43;32.73;;;2.00;48.60;;;;;;5009687;28;20240;-83
2024/01/17 00:56:01;;;;;;;52.60;31.20;;;2.00;48.50;;;;;;5005320;28;20688;-82
2024/01/17 00:58:27;;;;;;;58.73;32.20;;;2.00;48.60;;;;;;5028040;28;20271;-82
2024/01/17 01:00:53;;;;;;;51.43;30.27;;;2.00;48.70;;;;;;5008491;28;20181;-82
2024/01/17 01:03:19;;;;;;;52.30;31.40;;;2.00;49.20;;;;;;5014532;28;20197;-82
2024/01/17 01:05:46;;;;;;;54.53;31.77;;;2.00;48.70;;;;;;5025076;28;20194;-82
2024/01/17 01:08:12;;;;;;;53.17;31.07;;;2.10;48.80;;;;;;5013982;28;20627;-83
2024/01/17 01:10:37;;;;;;;50.93;30.77;;;2.10;48.70;;;;;;5012100;28;20181;-81
2024/01/17 01:13:03;;;;;;;52.80;30.23;;;2.10;48.70;;;;;;5030930;28;20209;-83
2024/01/17 01:15:29;;;;;;;53.97;30.90;;;2.20;48.80;;;;;;5022772;28;20237;-81
2024/01/17 01:17:54;;;;;;;52.00;30.53;;;2.10;48.80;;;;;;5011375;28;20323;-82
2024/01/17 01:20:20;;;;;;;49.93;29.67;;;2.20;48.80;;;;;;5007488;28;20266;-83
2024/01/17 01:22:46;;;;;;;48.93;29.90;;;2.10;48.80;;;;;;5026275;28;20579;-82
2024/01/17 01:25:12;;;;;;;53.83;31.20;;;2.00;48.60;;;;;;5015502;28;20189;-82
2024/01/17 01:27:37;;;;;;;47.50;28.77;;;2.00;48.70;;;;;;5032596;28;20733;-82
2024/01/17 01:30:03;;;;;;;51.03;30.73;;;2.00;48.80;;;;;;5010960;28;20189;-82
2024/01/17 01:32:29;;;;;;;47.20;29.13;;;2.10;49.00;;;;;;5025695;28;20205;-83
2024/01/17 01:34:54;;;;;;;48.23;30.40;;;2.10;49.00;;;;;;5014163;28;20715;-82
2024/01/17 01:37:20;;;;;;;54.63;30.70;;;2.10;49.00;;;;;;5017672;28;20177;-83
2024/01/17 01:39:46;;;;;;;45.60;29.13;;;2.10;49.00;;;;;;5009800;28;20677;-82
2024/01/17 01:42:11;;;;;;;48.30;29.47;;;2.20;49.10;;;;;;5021829;28;20208;-83
2024/01/17 01:44:37;;;;;;;47.73;30.13;;;2.20;49.10;;;;;;5028187;28;20211;-82
2024/01/17 01:47:03;;;;;;;53.40;30.60;;;2.20;48.90;;;;;;5015639;28;20188;-83
2024/01/17 01:49:30;;;;;;;46.67;28.27;;;2.30;49.10;;;;;;5027354;28;20196;-83
2024/01/17 01:51:55;;;;;;;53.83;30.93;;;2.20;49.30;;;;;;5008434;28;20205;-82
2024/01/17 01:54:22;;;;;;;51.50;28.67;;;2.20;49.30;;;;;;5008686;28;20188;-82
2024/01/17 01:56:49;;;;;;;47.07;28.77;;;2.30;49.40;;;;;;5023002;28;20195;-82
2024/01/17 01:59:17;;;;;;;49.37;29.00;;;2.40;49.60;;;;;;5007384;28;20187;-83
2024/01/17 02:01:42;;;;;;;53.87;30.67;;;2.30;49.60;;;;;;5028234;28;20197;-81
2024/01/17 02:04:10;;;;;;;50.00;29.50;;;2.40;49.70;;;;;;5005270;28;20940;-83
2024/01/17 02:06:35;;;;;;;57.97;31.67;;;2.40;49.70;;;;;;5010824;28;20219;-82
2024/01/17 02:09:02;;;;;;;53.47;31.40;;;2.40;49.70;;;;;;5012484;28;20217;-83
2024/01/17 02:11:32;;;;;;;47.80;29.27;;;2.40;49.70;;;;;;5008325;28;20230;-82
2024/01/17 02:13:58;;;;;;;50.33;30.47;;;2.60;49.80;;;;;;5009907;28;20193;-83
2024/01/17 02:16:24;;;;;;;52.97;30.60;;;2.50;49.70;;;;;;5028045;28;20177;-83
2024/01/17 02:18:51;;;;;;;47.97;30.00;;;2.50;49.80;;;;;;5012212;28;20199;-82
2024/01/17 02:21:17;;;;;;;50.70;30.77;;;2.60;49.90;;;;;;5007295;28;20182;-83
2024/01/17 02:23:43;;;;;;;53.17;30.73;;;2.50;49.90;;;;;;5010016;28;20195;-82
2024/01/17 02:26:09;;;;;;;52.27;29.43;;;2.50;49.80;;;;;;5029352;28;20201;-83
2024/01/17 02:28:35;;;;;;;52.77;30.70;;;2.60;49.80;;;;;;5004780;28;20180;-82
2024/01/17 02:31:01;;;;;;;49.77;30.17;;;2.60;49.90;;;;;;5027188;28;20625;-83
2024/01/17 02:33:27;;;;;;;48.33;29.87;;;2.60;49.80;;;;;;5001145;28;20224;-82
2024/01/17 02:35:53;;;;;;;47.50;29.23;;;2.70;49.90;;;;;;5005172;28;20225;-83
2024/01/17 02:38:19;;;;;;;51.43;29.57;;;2.60;49.90;;;;;;5020018;28;20208;-82
2024/01/17 02:40:44;;;;;;;47.37;29.47;;;2.60;49.90;;;;;;5021399;28;20179;-83
2024/01/17 02:43:10;;;;;;;52.33;30.60;;;2.70;50.00;;;;;;5021905;28;20185;-83
2024/01/17 02:45:36;;;;;;;45.77;29.57;;;2.60;49.80;;;;;;5012208;28;20558;-83
2024/01/17 02:48:02;;;;;;;46.77;28.00;;;2.60;49.80;;;;;;5023879;28;20185;-83
2024/01/17 02:50:28;;;;;;;46.87;28.53;;;2.60;49.90;;;;;;5012509;28;20186;-83
2024/01/17 02:52:54;;;;;;;48.93;27.87;;;2.70;49.90;;;;;;5001178;28;20248;-82
2024/01/17 02:55:22;;;;;;;51.70;29.20;;;2.70;49.90;;;;;;5015676;28;20266;-82
2024/01/17 02:57:48;;;;;;;50.70;28.17;;;2.70;49.90;;;;;;5014878;28;20196;-83
2024/01/17 03:00:14;;;;;;;44.30;27.87;;;2.70;49.90;;;;;;5009287;28;20189;-82
2024/01/17 03:02:39;;;;;;;51.23;27.40;;;2.70;49.90;;;;;;5014999;28;20242;-82
2024/01/17 03:05:05;;;;;;;51.77;29.30;;;2.70;49.90;;;;;;5010697;28;20181;-82
2024/01/17 03:07:31;;;;;;;44.40;27.50;;;2.70;50.00;;;;;;5022344;28;20177;-82
2024/01/17 03:09:57;;;;;;;44.60;26.07;;;2.80;50.10;;;;;;5007042;28;20190;-83
2024/01/17 03:12:23;;;;;;;38.27;25.67;;;2.80;50.10;;;;;;5025261;28;20218;-82
2024/01/17 03:14:49;;;;;;;42.50;26.33;;;2.80;50.10;;;;;;5012963;28;20189;-81
2024/01/17 03:17:16;;;;;;;47.27;26.03;;;2.80;50.10;;;;;;5019707;28;20193;-82
2024/01/17 03:23:03;;;;;;;40.20;23.67;;;2.80;50.10;;;;;;5022868;28;20219;-82
2024/01/17 03:25:29;;;;;;;36.03;22.73;;;2.90;50.10;;;;;;5013752;28;20225;-82
2024/01/17 03:27:54;;;;;;;42.80;25.13;;;2.90;50.10;;;;;;5008897;28;20549;-83
2024/01/17 03:30:20;;;;;;;39.70;24.77;;;2.90;50.20;;;;;;5013030;28;20213;-83
2024/01/17 03:32:46;;;;;;;43.40;24.63;;;2.90;50.00;;;;;;5011974;28;20662;-83
2024/01/17 03:35:11;;;;;;;42.77;24.47;;;2.80;50.00;;;;;;5012020;28;20225;-82
2024/01/17 03:37:37;;;;;;;41.73;23.97;;;2.90;50.10;;;;;;5005008;28;20177;-83
2024/01/17 03:40:03;;;;;;;41.37;24.80;;;2.80;49.90;;;;;;5014931;28;20177;-83
2024/01/17 03:42:28;;;;;;;36.87;22.60;;;2.80;50.00;;;;;;5015687;28;20284;-83
2024/01/17 03:44:54;;;;;;;42.67;24.37;;;2.80;50.10;;;;;;5015895;28;20185;-82
2024/01/17 03:50:42;;;;;;;41.80;25.23;;;2.80;49.80;;;;;;5024196;28;20193;-82
2024/01/17 03:53:07;;;;;;;40.67;25.53;;;2.80;50.00;;;;;;5005189;28;20202;-83
2024/01/17 03:55:33;;;;;;;40.73;23.87;;;2.80;50.00;;;;;;5011599;28;20196;-83
2024/01/17 03:57:59;;;;;;;43.17;23.67;;;2.80;50.10;;;;;;5015509;28;20184;-83
2024/01/17 04:00:24;;;;;;;41.07;24.70;;;2.80;50.20;;;;;;5015242;28;20272;-83
2024/01/17 04:02:50;;;;;;;42.00;24.53;;;2.80;50.20;;;;;;5015055;28;20197;-82
2024/01/17 04:05:19;;;;;;;39.57;23.87;;;2.80;50.20;;;;;;5013700;28;20248;-83
2024/01/17 04:07:45;;;;;;;39.20;23.83;;;2.90;50.30;;;;;;5019771;28;20185;-83
2024/01/17 04:10:11;;;;;;;41.97;25.33;;;2.90;50.10;;;;;;5028086;28;20423;-83
2024/01/17 04:12:37;;;;;;;37.70;23.30;;;2.90;50.20;;;;;;5023012;28;20686;-82
2024/01/17 04:15:03;;;;;;;34.93;22.67;;;2.90;50.20;;;;;;5031021;28;20219;-83
2024/01/17 04:17:28;;;;;;;37.03;22.87;;;2.90;50.30;;;;;;5023278;28;20232;-83
2024/01/17 04:19:54;;;;;;;38.07;22.50;;;2.90;50.30;;;;;;5005581;28;20535;-83
2024/01/17 04:22:20;;;;;;;42.37;24.13;;;2.90;50.20;;;;;;5010820;28;20197;-83
2024/01/17 04:24:45;;;;;;;34.97;23.60;;;3.00;50.20;;;;;;5009683;28;20189;-83
2024/01/17 04:27:11;;;;;;;44.53;25.27;;;3.00;50.10;;;;;;5019977;28;20181;-82
2024/01/17 04:29:36;;;;;;;39.13;23.73;;;3.00;50.10;;;;;;5023895;28;20213;-83
2024/01/17 04:32:02;;;;;;;38.77;23.53;;;3.00;50.00;;;;;;5032126;28;20205;-83
2024/01/17 04:38:08;;;;;;;38.67;22.87;;;3.00;50.10;;;;;;5033941;28;20346;-83
2024/01/17 04:40:34;;;;;;;39.67;22.23;;;3.00;49.90;;;;;;5012529;28;20661;-82
2024/01/17 04:43:37;;;;;;;37.37;23.70;;;2.90;49.80;;;;;;5032568;28;20189;-83
2024/01/17 04:46:03;;;;;;;36.97;22.93;;;3.00;50.00;;;;;;5023592;28;20205;-82
2024/01/17 04:48:28;;;;;;;39.83;23.40;;;2.90;49.90;;;;;;5007354;28;20209;-82
2024/01/17 04:51:06;;;;;;;33.07;22.50;;;2.90;50.00;;;;;;5012521;28;20629;-82
2024/01/17 04:53:54;;;;;;;41.37;23.90;;;3.00;50.00;;;;;;5024716;28;20216;-82
2024/01/17 04:56:20;;;;;;;38.43;22.37;;;2.90;49.80;;;;;;5024965;28;20181;-83
2024/01/17 04:58:46;;;;;;;36.33;22.90;;;2.90;50.00;;;;;;5028090;28;20536;-82
2024/01/17 05:01:12;;;;;;;37.47;22.67;;;2.90;50.00;;;;;;5013916;28;20178;-82
2024/01/17 05:03:41;;;;;;;39.47;22.87;;;2.90;49.90;;;;;;5025935;28;20271;-82
2024/01/17 05:06:08;;;;;;;36.17;22.47;;;2.90;49.90;;;;;;5024342;28;20179;-83
2024/01/17 05:08:33;;;;;;;34.47;22.10;;;2.90;50.00;;;;;;5027321;28;20180;-81
2024/01/17 05:10:59;;;;;;;38.60;22.77;;;3.00;50.20;;;;;;5015629;28;20184;-83
2024/01/17 05:13:24;;;;;;;36.50;22.37;;;2.90;50.20;;;;;;5025145;28;20241;-83
2024/01/17 05:15:50;;;;;;;39.87;23.40;;;2.90;50.10;;;;;;5011924;28;20637;-84
2024/01/17 05:18:16;;;;;;;37.80;22.93;;;2.90;50.10;;;;;;5010783;28;20208;-82
2024/01/17 05:20:41;;;;;;;33.53;21.60;;;3.10;50.20;;;;;;5010024;28;20209;-82
2024/01/17 05:23:07;;;;;;;41.40;23.77;;;3.00;50.00;;;;;;5013883;28;20530;-82
2024/01/17 05:25:33;;;;;;;39.00;22.43;;;3.00;49.90;;;;;;5011230;28;20180;-83
2024/01/17 05:27:58;;;;;;;33.97;21.63;;;3.10;50.10;;;;;;5014151;28;20189;-83
2024/01/17 05:30:25;;;;;;;43.77;23.47;;;3.10;50.10;;;;;;5009826;28;20188;-83
2024/01/17 05:32:52;;;;;;;36.13;23.17;;;2.90;49.90;;;;;;5028859;28;20273;-83
2024/01/17 05:38:40;;;;;;;37.60;21.87;;;2.90;50.10;;;;;;5016134;28;20236;-83
2024/01/17 05:41:06;;;;;;;41.67;22.77;;;2.90;50.00;;;;;;5031807;28;20180;-83
2024/01/17 05:43:32;;;;;;;34.53;22.07;;;2.90;50.00;;;;;;5029330;28;20275;-83
2024/01/17 05:45:57;;;;;;;36.07;22.33;;;2.90;50.10;;;;;;5002156;28;20280;-83
2024/01/17 05:48:24;;;;;;;34.63;23.00;;;2.90;50.10;;;;;;5011653;28;20654;-83
2024/01/17 05:50:49;;;;;;;39.40;23.80;;;2.90;49.80;;;;;;5027009;28;20201;-82
2024/01/17 05:53:15;;;;;;;37.07;22.07;;;2.80;49.80;;;;;;5004817;28;20715;-83
2024/01/17 05:55:52;;;;;;;41.47;24.47;;;2.80;49.80;;;;;;5024509;28;20189;-83
2024/01/17 05:58:17;;;;;;;41.57;24.77;;;2.80;50.00;;;;;;5022455;28;20766;-83
2024/01/17 06:00:43;;;;;;;86.40;49.30;;;2.80;49.90;;;;;;5024977;28;20224;-83
2024/01/17 06:03:09;;;;;;;116.63;65.33;;;2.80;49.70;;;;;;5018275;28;20197;-83
2024/01/17 06:05:35;;;;;;;169.33;86.30;;;2.90;49.70;;;;;;5010594;28;20198;-83
2024/01/17 06:08:01;;;;;;;170.17;82.37;;;2.90;49.50;;;;;;5007483;28;20188;-84
2024/01/17 06:10:28;;;;;;;146.23;68.87;;;2.90;49.40;;;;;;5024986;28;20190;-83
2024/01/17 06:12:54;;;;;;;169.23;72.90;;;2.90;49.40;;;;;;5027689;28;20204;-83
2024/01/17 06:15:19;;;;;;;132.90;57.73;;;2.80;49.20;;;;;;5025306;28;20193;-83
2024/01/17 06:17:45;;;;;;;90.53;43.77;;;2.70;49.10;;;;;;5025270;28;20186;-82
2024/01/17 06:20:11;;;;;;;47.10;27.00;;;2.70;49.10;;;;;;5025491;28;20276;-83
2024/01/17 06:22:37;;;;;;;36.93;23.40;;;2.60;48.90;;;;;;5028142;28;20219;-82
2024/01/17 06:25:05;;;;;;;38.30;21.63;;;2.40;48.60;;;;;;5009266;28;20270;-83
2024/01/17 06:27:31;;;;;;;36.40;21.67;;;2.30;48.70;;;;;;5009873;28;20587;-83
2024/01/17 06:29:57;;;;;;;37.73;23.07;;;2.20;48.80;;;;;;5026657;28;20285;-83
2024/01/17 06:32:22;;;;;;;46.47;24.07;;;2.30;49.00;;;;;;5008855;28;20212;-83
2024/01/17 06:34:48;;;;;;;41.93;22.70;;;2.10;49.00;;;;;;5008662;28;20314;-83
2024/01/17 06:37:14;;;;;;;39.73;23.87;;;2.10;49.10;;;;;;5024865;28;20222;-83
2024/01/17 06:39:39;;;;;;;38.17;22.27;;;2.10;49.10;;;;;;5008337;28;20220;-83
2024/01/17 06:42:05;;;;;;;39.27;24.03;;;2.00;48.90;;;;;;5024955;28;20323;-83
2024/01/17 06:44:31;;;;;;;40.43;23.57;;;2.00;49.00;;;;;;5025224;28;20206;-83
2024/01/17 06:46:57;;;;;;;44.77;24.03;;;2.00;49.00;;;;;;5009278;28;20181;-83
2024/01/17 06:53:26;;;;;;;40.87;23.23;;;1.90;48.70;;;;;;5025444;28;20685;-83
2024/01/17 06:55:52;;;;;;;36.33;23.33;;;1.90;49.00;;;;;;5025516;28;20245;-83
2024/01/17 06:58:18;;;;;;;41.23;24.07;;;1.80;48.80;;;;;;5025591;28;20643;-83
2024/01/17 07:04:06;;;;;;;42.43;22.77;;;1.70;48.50;;;;;;5025420;28;20550;-82
2024/01/17 07:06:32;;;;;;;45.97;25.50;;;1.60;48.40;;;;;;5024256;28;20310;-83
2024/01/17 07:08:59;;;;;;;44.10;24.70;;;1.60;48.60;;;;;;5007838;28;20188;-83
2024/01/17 07:11:24;;;;;;;44.80;24.93;;;1.50;48.60;;;;;;5022007;28;20189;-83
2024/01/17 07:13:50;;;;;;;54.60;27.87;;;1.70;49.00;;;;;;5004779;28;20751;-84
2024/01/17 07:16:57;;;;;;;53.27;28.83;;;1.60;48.80;;;;;;5028552;28;20249;-83
2024/01/17 07:19:23;;;;;;;52.07;28.07;;;1.60;48.70;;;;;;5011780;28;20185;-83
2024/01/17 07:21:48;;;;;;;57.17;27.97;;;1.70;48.90;;;;;;5032418;28;20259;-83
2024/01/17 07:24:29;;;;;;;50.40;27.00;;;1.80;48.90;;;;;;5028952;28;20185;-82
2024/01/17 07:30:19;;;;;;;42.77;26.47;;;1.60;48.50;;;;;;5030078;28;20637;-83
2024/01/17 07:32:45;;;;;;;44.97;25.43;;;1.60;48.40;;;;;;5013532;28;20337;-84
2024/01/17 07:35:10;;;;;;;43.10;25.60;;;1.60;48.60;;;;;;5030058;28;20258;-83
2024/01/17 07:37:36;;;;;;;43.47;24.77;;;1.50;48.10;;;;;;5029869;28;20192;-83
2024/01/17 07:40:02;;;;;;;42.73;25.73;;;1.50;48.20;;;;;;5029118;28;20310;-83
2024/01/17 07:42:28;;;;;;;43.07;26.37;;;1.40;48.30;;;;;;5028389;28;20279;-83
2024/01/17 07:44:54;;;;;;;40.47;24.57;;;1.40;48.30;;;;;;5011551;28;20198;-83
2024/01/17 07:47:19;;;;;;;45.70;25.83;;;1.40;48.30;;;;;;5028705;28;20192;-83
2024/01/17 07:49:46;;;;;;;41.53;23.67;;;1.40;48.50;;;;;;5028776;28;20188;-83
2024/01/17 07:52:30;;;;;;;40.80;24.70;;;1.40;48.70;;;;;;5013442;28;20738;-83
2024/01/17 07:54:56;;;;;;;40.10;23.93;;;1.60;49.10;;;;;;5027002;28;20200;-83
2024/01/17 07:57:21;;;;;;;40.37;23.23;;;1.50;48.40;;;;;;5010083;28;20202;-83
2024/01/17 07:59:47;;;;;;;43.90;24.47;;;1.50;48.60;;;;;;5032197;28;20640;-83
2024/01/17 08:02:13;;;;;;;38.80;24.77;;;1.50;48.60;;;;;;5029509;28;20636;-83
2024/01/17 08:04:41;;;;;;;43.63;25.00;;;1.50;48.70;;;;;;5026874;28;20190;-83
2024/01/17 08:07:08;;;;;;;42.10;24.03;;;1.60;48.70;;;;;;5011135;28;20201;-83
2024/01/17 08:09:33;;;;;;;43.80;25.47;;;1.60;48.80;;;;;;5026470;28;20544;-83
2024/01/17 08:11:59;;;;;;;37.60;23.33;;;1.70;48.90;;;;;;5027010;28;20215;-83
2024/01/17 08:14:25;;;;;;;46.43;25.80;;;1.80;48.80;;;;;;5013938;28;20176;-83
2024/01/17 08:16:51;;;;;;;44.43;25.00;;;2.00;48.70;;;;;;5018515;28;20291;-83
2024/01/17 08:19:17;;;;;;;50.97;29.23;;;1.90;48.60;;;;;;5030212;28;20606;-83
2024/01/17 08:21:46;;;;;;;50.90;31.30;;;1.90;48.60;;;;;;5029105;28;20558;-83
2024/01/17 08:24:13;;;;;;;53.50;31.70;;;1.90;48.60;;;;;;5027251;28;20196;-83
2024/01/17 08:26:39;;;;;;;48.50;30.47;;;2.00;48.80;;;;;;5029536;28;20178;-83
2024/01/17 08:29:04;;;;;;;53.27;30.93;;;2.00;48.80;;;;;;5029919;28;20527;-81
2024/01/17 08:31:30;;;;;;;49.93;29.97;;;2.10;48.80;;;;;;5012467;28;20191;-83
2024/01/17 08:33:56;;;;;;;48.17;27.47;;;2.20;48.90;;;;;;5029576;28;20217;-83
2024/01/17 08:36:23;;;;;;;43.70;26.50;;;2.10;48.80;;;;;;5010463;28;20688;-83
2024/01/17 08:38:49;;;;;;;40.67;25.60;;;2.30;48.90;;;;;;5029358;28;20680;-83
2024/01/17 08:41:19;;;;;;;44.43;26.83;;;2.20;48.70;;;;;;5012509;28;20185;-82
2024/01/17 08:43:44;;;;;;;40.17;25.03;;;2.20;48.70;;;;;;5012449;28;20189;-83
2024/01/17 08:46:11;;;;;;;40.30;25.27;;;2.20;48.60;;;;;;5024951;28;20272;-83
2024/01/17 08:48:38;;;;;;;41.77;26.33;;;2.20;48.80;;;;;;5009694;28;20185;-83
2024/01/17 08:51:04;;;;;;;43.43;25.87;;;2.20;48.90;;;;;;5010025;28;20204;-83
2024/01/17 08:53:31;;;;;;;45.90;27.10;;;2.20;48.90;;;;;;5008007;28;20213;-82
2024/01/17 08:55:57;;;;;;;41.67;27.03;;;2.20;49.00;;;;;;5022117;28;20209;-83
2024/01/17 08:58:51;;;;;;;45.03;27.30;;;2.20;49.10;;;;;;5004653;28;20271;-84
2024/01/17 09:01:16;;;;;;;43.47;27.13;;;2.30;49.30;;;;;;5011894;28;20189;-84
2024/01/17 09:03:43;;;;;;;45.23;27.17;;;2.30;49.30;;;;;;5027300;28;20190;-83
2024/01/17 09:06:09;;;;;;;46.70;28.17;;;2.50;49.30;;;;;;5023897;28;20184;-84
2024/01/17 09:08:34;;;;;;;41.77;26.50;;;2.50;49.20;;;;;;5013819;28;20173;-84
2024/01/17 09:11:00;;;;;;;44.87;27.40;;;2.50;49.30;;;;;;5018951;28;20188;-84
2024/01/17 09:13:26;;;;;;;46.23;27.90;;;2.60;49.30;;;;;;5015932;28;20213;-83
2024/01/17 09:15:51;;;;;;;47.47;28.40;;;2.70;49.30;;;;;;5015953;28;20306;-83
2024/01/17 09:18:18;;;;;;;45.93;27.90;;;2.60;49.10;;;;;;5004362;28;20197;-83
2024/01/17 09:20:44;;;;;;;41.87;26.97;;;2.60;49.20;;;;;;5005181;28;20179;-83
2024/01/17 09:23:11;;;;;;;41.90;26.33;;;2.60;49.10;;;;;;5008125;28;21564;-82
2024/01/17 09:25:37;;;;;;;44.87;26.57;;;2.60;49.20;;;;;;5005893;28;20189;-83
2024/01/17 09:28:03;;;;;;;40.57;26.03;;;2.70;49.10;;;;;;5004648;28;20185;-84
2024/01/17 09:30:28;;;;;;;44.83;26.33;;;2.70;49.00;;;;;;5025687;28;20188;-83
2024/01/17 09:32:54;;;;;;;45.03;26.87;;;2.80;49.20;;;;;;5001152;28;20205;-84
2024/01/17 09:35:19;;;;;;;38.97;25.00;;;2.80;49.30;;;;;;5024686;28;20189;-83
2024/01/17 09:37:45;;;;;;;42.27;26.73;;;2.80;49.20;;;;;;5008809;28;20178;-83
2024/01/17 09:40:13;;;;;;;43.17;25.93;;;2.90;49.30;;;;;;5023089;28;20241;-84
2024/01/17 09:42:39;;;;;;;40.03;25.67;;;2.90;49.80;;;;;;5008259;28;20193;-87
2024/01/17 09:45:08;;;;;;;43.90;25.47;;;3.00;49.30;;;;;;5009680;28;20257;-83
2024/01/17 09:47:40;;;;;;;39.20;24.43;;;3.00;49.20;;;;;;5006735;28;20178;-85
2024/01/17 09:50:06;;;;;;;40.97;24.93;;;3.00;49.30;;;;;;5021939;28;20184;-83
2024/01/17 09:52:33;;;;;;;39.60;24.37;;;3.10;49.40;;;;;;5007980;28;20308;-83
2024/01/17 09:55:00;;;;;;;42.63;25.07;;;3.10;49.30;;;;;;5008435;28;20221;-84
2024/01/17 09:57:30;;;;;;;40.90;25.53;;;3.10;49.20;;;;;;5004895;28;20186;-84
2024/01/17 10:00:08;;;;;;;45.37;25.73;;;3.10;49.10;;;;;;5022923;28;20619;-83
2024/01/17 10:02:36;;;;;;;40.77;25.23;;;3.10;49.00;;;;;;5006036;28;20256;-83
2024/01/17 10:05:04;;;;;;;41.67;24.80;;;3.20;49.00;;;;;;5005945;28;21058;-83
2024/01/17 10:07:30;;;;;;;41.20;25.07;;;3.20;48.90;;;;;;5022783;28;20243;-84
2024/01/17 10:09:57;;;;;;;42.53;25.93;;;3.20;48.80;;;;;;5023488;28;20701;-84
2024/01/17 10:12:22;;;;;;;40.17;25.67;;;3.20;48.90;;;;;;5025500;28;20349;-82
2024/01/17 10:14:49;;;;;;;42.20;24.73;;;3.20;48.90;;;;;;5022863;28;20272;-86
2024/01/17 10:17:14;;;;;;;40.63;24.27;;;3.40;49.10;;;;;;5024398;28;20180;-86
2024/01/17 10:19:40;;;;;;;44.93;25.50;;;3.30;49.00;;;;;;5018864;28;20196;-85
2024/01/17 10:22:10;;;;;;;40.30;25.30;;;3.30;49.00;;;;;;5023348;28;20215;-84
2024/01/17 10:24:37;;;;;;;44.83;26.47;;;3.30;49.00;;;;;;5020858;28;20437;-86
2024/01/17 10:27:04;;;;;;;47.63;27.53;;;3.50;49.10;;;;;;5003863;28;20254;-85
2024/01/17 10:29:30;;;;;;;45.70;27.20;;;3.40;48.90;;;;;;5006767;28;20701;-85
2024/01/17 10:31:59;;;;;;;46.80;26.87;;;3.40;48.80;;;;;;5006991;28;20197;-84
2024/01/17 10:34:29;;;;;;;42.33;26.43;;;3.50;48.90;;;;;;5003246;28;20284;-84
2024/01/17 10:36:55;;;;;;;47.17;27.97;;;3.40;48.80;;;;;;5010949;28;20189;-85
2024/01/17 10:39:22;;;;;;;43.13;27.30;;;3.60;49.00;;;;;;5023242;28;20242;-84
2024/01/17 10:41:54;;;;;;;48.27;28.27;;;3.50;48.80;;;;;;5025581;28;20192;-83
2024/01/17 10:44:20;;;;;;;47.10;28.60;;;3.50;48.70;;;;;;5022641;28;20199;-83
2024/01/17 10:46:53;;;;;;;48.23;30.07;;;3.50;48.70;;;;;;5006057;28;20727;-83
2024/01/17 10:49:23;;;;;;;52.80;29.60;;;3.60;48.70;;;;;;5023283;28;20181;-82
2024/01/17 10:51:52;;;;;;;48.17;29.17;;;3.60;48.80;;;;;;5007212;28;20384;-84
2024/01/17 10:54:24;;;;;;;48.60;30.50;;;3.60;48.70;;;;;;5005121;28;20255;-83
2024/01/17 10:56:54;;;;;;;48.73;30.63;;;3.60;48.60;;;;;;5009014;28;21416;-84
2024/01/17 10:59:21;;;;;;;47.67;29.53;;;3.60;48.60;;;;;;5005033;28;20217;-83
2024/01/17 11:01:50;;;;;;;46.27;29.80;;;3.70;48.60;;;;;;5022473;28;20209;-83
2024/01/17 11:04:36;;;;;;;46.23;28.63;;;3.70;48.50;;;;;;5002589;28;20189;-82
2024/01/17 11:07:03;;;;;;;50.00;30.73;;;3.70;48.60;;;;;;5023672;28;20194;-83
2024/01/17 11:09:30;;;;;;;49.87;31.07;;;3.70;48.50;;;;;;5021380;28;20198;-86
2024/01/17 11:11:58;;;;;;;46.60;30.37;;;3.70;48.50;;;;;;5018866;28;20835;-86
2024/01/17 11:14:25;;;;;;;48.10;29.73;;;3.70;48.40;;;;;;5017134;28;20279;-83
2024/01/17 11:16:52;;;;;;;44.37;29.90;;;3.70;48.40;;;;;;5003780;28;20284;-85
2024/01/17 11:19:19;;;;;;;51.77;32.23;;;3.70;48.50;;;;;;5022663;28;20205;-86
2024/01/17 11:21:44;;;;;;;49.27;32.03;;;3.80;48.50;;;;;;5004036;28;20273;-85
2024/01/17 11:24:26;;;;;;;49.90;30.53;;;4.00;48.60;;;;;;5007637;28;20273;-85
2024/01/17 11:27:09;;;;;;;45.43;29.93;;;3.90;48.60;;;;;;5010005;28;20186;-84
2024/01/17 11:29:59;;;;;;;47.60;30.77;;;3.90;48.70;;;;;;5024141;28;20643;-84
2024/01/17 11:32:48;;;;;;;48.50;32.20;;;4.00;48.70;;;;;;5025288;28;20231;-85
2024/01/17 11:35:39;;;;;;;53.33;30.30;;;4.00;48.70;;;;;;5021776;28;20201;-83
2024/01/17 11:38:10;;;;;;;46.47;30.77;;;4.00;48.60;;;;;;5009308;28;20173;-81
2024/01/17 11:40:37;;;;;;;49.67;31.73;;;4.10;48.70;;;;;;5004162;28;20182;-84
2024/01/17 11:43:02;;;;;;;45.63;28.90;;;4.10;48.70;;;;;;5006631;28;20197;-83
2024/01/17 11:45:28;;;;;;;43.63;28.90;;;4.10;48.70;;;;;;5025835;28;20192;-84
2024/01/17 11:48:10;;;;;;;47.67;31.07;;;4.10;48.70;;;;;;5010748;28;20209;-84
2024/01/17 11:50:37;;;;;;;46.37;29.73;;;4.20;48.80;;;;;;5024452;28;20182;-82
2024/01/17 11:53:03;;;;;;;48.70;28.67;;;4.20;48.70;;;;;;5023296;28;20214;-82
2024/01/17 11:55:47;;;;;;;43.67;28.20;;;4.30;48.80;;;;;;5014068;28;20197;-83
2024/01/17 11:58:14;;;;;;;44.37;27.80;;;4.30;48.70;;;;;;5018500;28;20530;-84
2024/01/17 12:00:39;;;;;;;49.47;32.07;;;4.40;48.70;;;;;;5020428;28;20196;-83
2024/01/17 12:03:05;;;;;;;45.33;28.50;;;4.40;49.10;;;;;;5009530;28;20181;-82
2024/01/17 12:05:35;;;;;;;43.10;28.63;;;4.40;48.50;;;;;;5023675;28;20531;-83
2024/01/17 12:08:06;;;;;;;48.20;28.77;;;4.40;48.60;;;;;;5009866;28;20195;-83
2024/01/17 12:10:32;;;;;;;46.03;30.53;;;4.50;48.60;;;;;;5026870;28;20376;-83
2024/01/17 12:12:58;;;;;;;45.87;28.37;;;4.50;48.60;;;;;;5026681;28;20217;-82
2024/01/17 12:15:24;;;;;;;46.07;28.70;;;4.50;48.40;;;;;;5010708;28;20529;-84
2024/01/17 12:17:50;;;;;;;42.23;27.23;;;4.60;48.40;;;;;;5025533;28;20191;-85
2024/01/17 12:20:17;;;;;;;46.97;27.63;;;4.70;48.50;;;;;;5026631;28;20190;-84
2024/01/17 12:22:51;;;;;;;43.30;29.67;;;4.70;48.50;;;;;;5028446;28;20190;-85
2024/01/17 12:25:18;;;;;;;45.17;29.07;;;4.60;48.40;;;;;;5011535;28;20197;-85
2024/01/17 12:27:54;;;;;;;44.00;28.53;;;4.70;48.40;;;;;;5009648;28;20209;-83
2024/01/17 12:30:19;;;;;;;45.20;28.23;;;4.70;48.30;;;;;;5011768;28;20212;-85
2024/01/17 12:32:46;;;;;;;44.17;28.53;;;4.80;48.40;;;;;;5028221;28;20233;-83
2024/01/17 12:35:12;;;;;;;40.43;26.83;;;4.80;48.40;;;;;;5028255;28;20182;-83
2024/01/17 12:37:38;;;;;;;40.20;26.53;;;4.70;48.30;;;;;;5007863;28;20195;-83
2024/01/17 12:40:04;;;;;;;39.60;26.70;;;4.80;48.30;;;;;;5022829;28;20222;-82
2024/01/17 12:42:33;;;;;;;43.83;26.33;;;4.70;48.20;;;;;;5012507;28;20209;-82
2024/01/17 12:44:59;;;;;;;39.97;25.93;;;4.90;48.40;;;;;;5023106;28;20185;-84
2024/01/17 12:47:25;;;;;;;38.57;24.93;;;4.80;48.30;;;;;;5019648;28;20960;-84
2024/01/17 12:49:53;;;;;;;37.80;25.33;;;4.80;48.20;;;;;;5007821;28;20195;-85
2024/01/17 12:52:18;;;;;;;35.83;24.23;;;4.90;48.20;;;;;;5009078;28;20210;-85
2024/01/17 12:54:44;;;;;;;40.93;25.23;;;4.80;48.10;;;;;;5006383;28;20205;-83
2024/01/17 12:57:11;;;;;;;36.30;23.60;;;4.80;48.20;;;;;;5027213;28;20182;-83
2024/01/17 12:59:37;;;;;;;36.00;23.80;;;4.80;48.00;;;;;;5008634;28;20190;-84